Rückspulen (3)
| Name | Rückspulen (3) |
|---|---|
| Muster | Rewind |
| Art | Zauber Sofort |
| Beschreibung | **Negiere** die Zielkarte einer 'Nicht-Angriffs'-Aktion und gib sie auf die Hand ihres Besitzers zurück. Dann erhält dieser Held 1 Aktionspunkt. *(Ein Held kann nur während seiner Aktionsphase Aktionspunkte erhalten.)* |
| Edition | Aufstand #UPR169-RF |
| Tapete | |
| Bild |
Um Rückspulen (3)
Rückspulen (3), Zauber Sofort, entworfen von None Erstveröffentlichung in Juli 2022 bei der Bearbeitung Uprising und wurde genau in gedruckt 3 verschiedene Formen. Es wird derzeit zum niedrigsten Preis von verkauft € 0,37.
Eine Kontrolldeck, das darauf ausgerichtet ist, die Strategie des Gegners zu stören, würde davon profitieren, Rückspulen (3) in ihr Deck aufzunehmen. Diese Karte kann effektiv nicht-Angriffsaktionkarten des Gegners stören, indem sie die Karte in ihre Hand zurückgibt und ihnen einen Aktionspunkt gewährt. Obwohl es möglicherweise andere Karten mit ähnlichen Effekten gibt, bietet Rückspulen (3) eine einzigartige Kombination aus Negation und Aktionspunktmanipulation, was es zu einer wertvollen Ergänzung in Decks macht, die darauf abzielen, das Tempo des Spiels zu kontrollieren.
Wo zu kaufen
![]() | Ebay.com | Shop besuchen | ||
![]() | Printing proxies | $ 0.75 | Shop besuchen |
*Diese Website enthält Affiliate-Links, für die wir möglicherweise eine Vergütung erhalten
Eine Gruppe
Preisalarm ?
Benachrichtigen Sie mich, wenn der Preis hereinkommt
Geschichte der Preisentwicklung

Preisgeschichte
| Datum | Minimaler Preis | Durchschnittlicher Preis | Decks |
|---|---|---|---|
| 2024-09-04 | 0.00 EUR | 0.00 EUR | 0 |
| 2024-09-09 | 0.00 EUR | 0.00 EUR | 0 |
| 2024-09-16 | 0.00 EUR | 0.00 EUR | 0 |
| 2024-09-23 | 0.00 EUR | 0.00 EUR | 0 |
| 2024-09-30 | 0.00 EUR | 0.00 EUR | 0 |
| 2024-10-07 | 0.00 EUR | 0.00 EUR | 0 |
| 2024-10-14 | 0.00 EUR | 0.00 EUR | 0 |
| 2024-10-21 | 0.00 EUR | 0.00 EUR | 0 |
| 2024-10-28 | 0.00 EUR | 0.00 EUR | 0 |
| 2024-11-06 | 0.00 EUR | 0.00 EUR | 0 |
| 2024-11-11 | 0.00 EUR | 0.00 EUR | 0 |
| 2024-11-18 | 0.00 EUR | 0.00 EUR | 0 |
| 2024-11-25 | 0.00 EUR | 0.00 EUR | 0 |
| 2024-12-02 | 5.36 EUR | 5.36 EUR | 0 |
| 2024-12-09 | 18.77 EUR | 18.77 EUR | 0 |
| 2024-12-19 | 18.77 EUR | 18.77 EUR | 0 |
| 2024-12-23 | 18.77 EUR | 18.77 EUR | 0 |
| 2024-12-30 | 18.77 EUR | 18.77 EUR | 0 |
| 2025-01-01 | 18.77 EUR | 18.77 EUR | 0 |
| 2025-01-06 | 18.77 EUR | 18.77 EUR | 0 |
| 2025-01-13 | 18.77 EUR | 18.77 EUR | 0 |
| 2025-01-20 | 18.77 EUR | 18.77 EUR | 0 |
| 2025-01-27 | 18.77 EUR | 18.77 EUR | 0 |
| 2025-02-03 | 17.42 EUR | 17.42 EUR | 0 |
| 2025-02-10 | 16.08 EUR | 16.08 EUR | 0 |
| 2025-04-27 | 1.44 EUR | 1.44 EUR | 0 |
| 2025-04-28 | 1.40 EUR | 1.40 EUR | 0 |
| 2025-05-06 | 1.30 EUR | 1.30 EUR | 0 |
| 2025-05-12 | 1.24 EUR | 1.24 EUR | 0 |
| 2025-05-19 | 1.16 EUR | 1.16 EUR | 0 |
| 2025-05-28 | 1.14 EUR | 1.14 EUR | 0 |
| 2025-06-03 | 1.12 EUR | 1.12 EUR | 0 |
| 2025-06-10 | 1.10 EUR | 1.10 EUR | 0 |
| 2025-06-17 | 0.94 EUR | 0.94 EUR | 0 |
| 2025-06-23 | 0.94 EUR | 0.94 EUR | 0 |
| 2025-07-01 | 0.92 EUR | 0.92 EUR | 0 |
| 2025-07-08 | 0.83 EUR | 0.83 EUR | 0 |
| 2025-07-15 | 0.75 EUR | 0.75 EUR | 0 |
| 2025-07-22 | 0.83 EUR | 0.83 EUR | 0 |
| 2025-07-29 | 0.83 EUR | 0.83 EUR | 0 |
| 2025-08-05 | 0.83 EUR | 0.83 EUR | 0 |
| 2025-08-12 | 0.83 EUR | 0.83 EUR | 0 |
| 2025-08-18 | 0.84 EUR | 0.84 EUR | 0 |
| 2025-08-25 | 0.86 EUR | 0.86 EUR | 0 |
| 2025-09-02 | 0.86 EUR | 0.86 EUR | 0 |
| 2025-09-09 | 0.67 EUR | 0.67 EUR | 0 |
| 2025-09-15 | 1.02 EUR | 1.02 EUR | 0 |
| 2025-09-23 | 1.02 EUR | 1.02 EUR | 0 |
| 2025-09-29 | 0.91 EUR | 0.91 EUR | 0 |
| 2025-10-06 | 0.89 EUR | 0.89 EUR | 0 |
| 2025-10-13 | 1.15 EUR | 1.15 EUR | 0 |
| 2025-10-20 | 1.24 EUR | 1.24 EUR | 0 |
| 2025-10-27 | 1.36 EUR | 1.36 EUR | 0 |
| 2025-11-03 | 1.37 EUR | 1.37 EUR | 0 |
| 2025-11-10 | 1.22 EUR | 1.22 EUR | 0 |
| 2025-11-18 | 1.49 EUR | 1.49 EUR | 0 |
| 2025-11-24 | 1.50 EUR | 1.50 EUR | 0 |
| 2025-12-03 | 1.50 EUR | 1.50 EUR | 0 |
| 2025-12-08 | 0.90 EUR | 0.90 EUR | 0 |
| 2025-12-15 | 1.59 EUR | 1.59 EUR | 0 |
| 2025-12-22 | 1.29 EUR | 1.29 EUR | 0 |
| 2025-12-29 | 1.57 EUR | 1.57 EUR | 0 |
| 2026-01-01 | 1.42 EUR | 1.42 EUR | 0 |
| 2026-01-05 | 1.37 EUR | 1.37 EUR | 0 |
| 2026-01-13 | 1.38 EUR | 1.38 EUR | 0 |
| 2026-01-20 | 1.34 EUR | 1.34 EUR | 0 |
| 2026-01-26 | 1.32 EUR | 1.32 EUR | 0 |
| 2026-02-02 | 1.21 EUR | 1.21 EUR | 0 |
| 2026-02-09 | 1.26 EUR | 1.26 EUR | 0 |
| 2026-02-16 | 1.26 EUR | 1.26 EUR | 0 |
| 2026-02-23 | 0.84 EUR | 0.84 EUR | 0 |
| 2026-03-02 | 1.30 EUR | 1.30 EUR | 0 |
| 2026-03-10 | 1.31 EUR | 1.31 EUR | 0 |
| 2026-03-16 | 1.33 EUR | 1.33 EUR | 0 |
| 2026-04-02 | 1.32 EUR | 1.32 EUR | 0 |
| 2026-04-07 | 1.00 EUR | 1.00 EUR | 0 |
| 2026-04-14 | 1.25 EUR | 1.25 EUR | 0 |
| 2026-04-23 | 1.25 EUR | 1.25 EUR | 0 |
| 2026-04-30 | 1.25 EUR | 1.25 EUR | 0 |
| 2026-05-05 | 0.89 EUR | 0.89 EUR | 0 |
| 2026-05-14 | 0.76 EUR | 0.76 EUR | 0 |
| 2026-05-20 | 1.22 EUR | 1.22 EUR | 0 |
| 2026-05-25 | 0.65 EUR | 0.65 EUR | 0 |
| 2026-06-01 | 0.79 EUR | 0.79 EUR | 0 |
| 2026-06-08 | 0.92 EUR | 0.92 EUR | 0 |
| 2026-06-15 | 0.65 EUR | 0.65 EUR | 0 |
| 2026-06-23 | 0.52 EUR | 0.52 EUR | 0 |
| 2026-06-29 | 0.53 EUR | 0.53 EUR | 0 |
| 2026-07-06 | 0.42 EUR | 0.42 EUR | 0 |
| 2026-07-13 | 0.38 EUR | 0.38 EUR | 0 |
| 2026-07-20 | 0.43 EUR | 0.43 EUR | 0 |
| 2026-07-27 | 0.37 EUR | 0.37 EUR | 0 |
| 2026-08-03 | 0.37 EUR | 0.37 EUR | 0 |
| 2026-08-10 | 0.37 EUR | 0.37 EUR | 0 |
| 2026-08-17 | 0.37 EUR | 0.37 EUR | 0 |
| 2026-08-24 | 0.37 EUR | 0.37 EUR | 0 |
| 2026-09-01 | 0.37 EUR | 0.37 EUR | 0 |
Häufig gestellte Fragen zu Rückspulen (3)
Welcher Kartentyp ist Rückspulen (3)?
Rückspulen (3) ist Zauber Sofort Karte hinein Flesh and Blood FAB.
Welchen Effekt hat Rückspulen (3)?
**Negiere** die Zielkarte einer 'Nicht-Angriffs'-Aktion und gib sie auf die Hand ihres Besitzers zurück. Dann erhält dieser Held 1 Aktionspunkt. *(Ein Held kann nur während seiner Aktionsphase Aktionspunkte erhalten.)*
Was kostet Rückspulen (3)?
Rückspulen (3) beginnt derzeit um € 0,37. Sehen Sie sich die Live-Preise mehrerer Verkäufer oben im Abschnitt „Wo kaufen“ an.
Aus welchem Set stammt Rückspulen (3)?
Rückspulen (3) wurde erstmals im Set veröffentlicht Uprising.
Wie ist die Legalität von Rückspulen (3)?
Die Legalität hängt vom Turnierformat ab – Rückspulen (3) kann in einigen Formaten legal und in anderen verboten oder eingeschränkt sein. Die vollständige Aufschlüsselung nach Format finden Sie oben im Abschnitt „Rechtmäßigkeit“.



Reaktionen
0
0 Kommentare
Sei der erste der kommentiert